sensor_id;sensor_type;location;lat;lon;timestamp;P1;durP1;ratioP1;P2;durP2;ratioP2
34471;SDS011;20710;49.976;19.836;2023-01-24T00:05:59;108.90;;;40.60;;
34471;SDS011;20710;49.976;19.836;2023-01-24T00:12:01;121.20;;;41.80;;
34471;SDS011;20710;49.976;19.836;2023-01-24T00:18:04;124.60;;;43.60;;
34471;SDS011;20710;49.976;19.836;2023-01-24T00:24:15;108.40;;;40.80;;
34471;SDS011;20710;49.976;19.836;2023-01-24T00:30:17;108.80;;;41.00;;
34471;SDS011;20710;49.976;19.836;2023-01-24T00:36:20;112.00;;;40.50;;
34471;SDS011;20710;49.976;19.836;2023-01-24T00:42:24;105.10;;;42.50;;
34471;SDS011;20710;49.976;19.836;2023-01-24T00:48:28;100.50;;;40.30;;
34471;SDS011;20710;49.976;19.836;2023-01-24T00:54:30;96.80;;;37.00;;
34471;SDS011;20710;49.976;19.836;2023-01-24T01:00:38;101.50;;;41.90;;
34471;SDS011;20710;49.976;19.836;2023-01-24T01:06:48;111.50;;;40.70;;
34471;SDS011;20710;49.976;19.836;2023-01-24T01:12:53;95.80;;;38.20;;
34471;SDS011;20710;49.976;19.836;2023-01-24T01:18:55;100.90;;;38.70;;
34471;SDS011;20710;49.976;19.836;2023-01-24T01:25:02;94.80;;;37.50;;
34471;SDS011;20710;49.976;19.836;2023-01-24T01:31:07;100.30;;;39.60;;
34471;SDS011;20710;49.976;19.836;2023-01-24T01:37:14;102.60;;;38.70;;
34471;SDS011;20710;49.976;19.836;2023-01-24T01:43:18;94.10;;;37.00;;
34471;SDS011;20710;49.976;19.836;2023-01-24T01:49:24;86.50;;;35.40;;
34471;SDS011;20710;49.976;19.836;2023-01-24T01:55:30;92.80;;;36.30;;
34471;SDS011;20710;49.976;19.836;2023-01-24T02:01:45;89.20;;;36.10;;
34471;SDS011;20710;49.976;19.836;2023-01-24T02:08:15;94.00;;;37.30;;
34471;SDS011;20710;49.976;19.836;2023-01-24T02:14:30;88.20;;;35.30;;
34471;SDS011;20710;49.976;19.836;2023-01-24T02:20:55;88.50;;;37.20;;
34471;SDS011;20710;49.976;19.836;2023-01-24T02:26:57;89.20;;;33.10;;
34471;SDS011;20710;49.976;19.836;2023-01-24T02:32:59;74.70;;;29.30;;
34471;SDS011;20710;49.976;19.836;2023-01-24T02:39:11;70.90;;;29.40;;
34471;SDS011;20710;49.976;19.836;2023-01-24T02:45:20;63.50;;;26.80;;
34471;SDS011;20710;49.976;19.836;2023-01-24T02:51:24;59.90;;;24.90;;
34471;SDS011;20710;49.976;19.836;2023-01-24T02:57:49;57.70;;;23.50;;
34471;SDS011;20710;49.976;19.836;2023-01-24T03:04:11;51.50;;;24.10;;
34471;SDS011;20710;49.976;19.836;2023-01-24T03:10:17;52.80;;;23.70;;
34471;SDS011;20710;49.976;19.836;2023-01-24T03:16:23;55.20;;;23.00;;
34471;SDS011;20710;49.976;19.836;2023-01-24T03:22:45;61.90;;;23.90;;
34471;SDS011;20710;49.976;19.836;2023-01-24T03:29:06;59.30;;;23.70;;
34471;SDS011;20710;49.976;19.836;2023-01-24T03:35:27;55.00;;;22.40;;
34471;SDS011;20710;49.976;19.836;2023-01-24T03:41:29;55.90;;;23.50;;
34471;SDS011;20710;49.976;19.836;2023-01-24T03:47:34;56.20;;;23.40;;
34471;SDS011;20710;49.976;19.836;2023-01-24T03:53:37;54.70;;;21.50;;
34471;SDS011;20710;49.976;19.836;2023-01-24T03:59:40;54.00;;;23.20;;
34471;SDS011;20710;49.976;19.836;2023-01-24T04:05:41;55.70;;;22.80;;
34471;SDS011;20710;49.976;19.836;2023-01-24T04:11:46;60.90;;;24.90;;
34471;SDS011;20710;49.976;19.836;2023-01-24T04:17:55;72.80;;;27.00;;
34471;SDS011;20710;49.976;19.836;2023-01-24T04:24:02;63.50;;;25.90;;
34471;SDS011;20710;49.976;19.836;2023-01-24T04:30:05;60.20;;;23.90;;
34471;SDS011;20710;49.976;19.836;2023-01-24T04:36:10;59.30;;;22.80;;
34471;SDS011;20710;49.976;19.836;2023-01-24T04:42:15;65.90;;;27.50;;
34471;SDS011;20710;49.976;19.836;2023-01-24T04:48:17;59.60;;;23.10;;
34471;SDS011;20710;49.976;19.836;2023-01-24T04:54:21;59.60;;;22.90;;
34471;SDS011;20710;49.976;19.836;2023-01-24T05:00:24;48.30;;;19.70;;
34471;SDS011;20710;49.976;19.836;2023-01-24T05:06:27;48.70;;;20.70;;
34471;SDS011;20710;49.976;19.836;2023-01-24T05:12:30;48.50;;;20.80;;
34471;SDS011;20710;49.976;19.836;2023-01-24T05:18:34;49.80;;;20.80;;
34471;SDS011;20710;49.976;19.836;2023-01-24T05:24:37;53.20;;;20.00;;
34471;SDS011;20710;49.976;19.836;2023-01-24T05:30:40;47.70;;;19.00;;
34471;SDS011;20710;49.976;19.836;2023-01-24T05:36:54;44.80;;;19.70;;
34471;SDS011;20710;49.976;19.836;2023-01-24T05:42:56;49.20;;;20.30;;
34471;SDS011;20710;49.976;19.836;2023-01-24T05:48:58;44.00;;;19.30;;
34471;SDS011;20710;49.976;19.836;2023-01-24T05:55:00;45.40;;;18.30;;
34471;SDS011;20710;49.976;19.836;2023-01-24T06:01:11;34.90;;;15.10;;
34471;SDS011;20710;49.976;19.836;2023-01-24T06:07:18;32.10;;;14.20;;
34471;SDS011;20710;49.976;19.836;2023-01-24T06:13:21;30.80;;;12.20;;
34471;SDS011;20710;49.976;19.836;2023-01-24T06:19:23;27.90;;;12.80;;
34471;SDS011;20710;49.976;19.836;2023-01-24T06:25:26;32.70;;;14.80;;
34471;SDS011;20710;49.976;19.836;2023-01-24T06:37:49;39.40;;;15.90;;
34471;SDS011;20710;49.976;19.836;2023-01-24T06:43:52;43.30;;;18.30;;
34471;SDS011;20710;49.976;19.836;2023-01-24T06:49:54;37.20;;;16.20;;
34471;SDS011;20710;49.976;19.836;2023-01-24T06:55:56;38.40;;;17.90;;
34471;SDS011;20710;49.976;19.836;2023-01-24T07:02:00;48.00;;;19.20;;
34471;SDS011;20710;49.976;19.836;2023-01-24T07:08:03;45.10;;;19.60;;
34471;SDS011;20710;49.976;19.836;2023-01-24T07:14:05;54.10;;;20.90;;
34471;SDS011;20710;49.976;19.836;2023-01-24T07:20:08;60.00;;;24.80;;
34471;SDS011;20710;49.976;19.836;2023-01-24T07:26:12;66.30;;;25.50;;
34471;SDS011;20710;49.976;19.836;2023-01-24T07:32:14;84.60;;;27.80;;
34471;SDS011;20710;49.976;19.836;2023-01-24T07:38:16;91.90;;;29.50;;
34471;SDS011;20710;49.976;19.836;2023-01-24T07:44:21;91.20;;;27.10;;
34471;SDS011;20710;49.976;19.836;2023-01-24T07:50:23;79.70;;;25.40;;
34471;SDS011;20710;49.976;19.836;2023-01-24T07:56:38;68.90;;;23.00;;
34471;SDS011;20710;49.976;19.836;2023-01-24T08:02:43;61.90;;;22.90;;
34471;SDS011;20710;49.976;19.836;2023-01-24T08:08:48;60.50;;;21.40;;
34471;SDS011;20710;49.976;19.836;2023-01-24T08:14:51;56.70;;;22.10;;
34471;SDS011;20710;49.976;19.836;2023-01-24T08:20:56;62.50;;;22.10;;
34471;SDS011;20710;49.976;19.836;2023-01-24T08:26:58;56.80;;;18.80;;
34471;SDS011;20710;49.976;19.836;2023-01-24T08:33:02;55.30;;;20.30;;
34471;SDS011;20710;49.976;19.836;2023-01-24T08:39:05;51.70;;;18.70;;
34471;SDS011;20710;49.976;19.836;2023-01-24T08:45:10;44.40;;;18.50;;
34471;SDS011;20710;49.976;19.836;2023-01-24T08:51:14;52.60;;;20.10;;
34471;SDS011;20710;49.976;19.836;2023-01-24T08:57:16;49.00;;;18.20;;
34471;SDS011;20710;49.976;19.836;2023-01-24T09:03:19;48.90;;;19.60;;
34471;SDS011;20710;49.976;19.836;2023-01-24T09:09:21;48.10;;;18.80;;
34471;SDS011;20710;49.976;19.836;2023-01-24T09:15:23;59.40;;;21.20;;
34471;SDS011;20710;49.976;19.836;2023-01-24T09:21:26;53.90;;;19.60;;
34471;SDS011;20710;49.976;19.836;2023-01-24T09:27:28;59.40;;;22.40;;
34471;SDS011;20710;49.976;19.836;2023-01-24T09:33:31;68.10;;;24.80;;
34471;SDS011;20710;49.976;19.836;2023-01-24T09:39:35;73.10;;;25.50;;
34471;SDS011;20710;49.976;19.836;2023-01-24T09:53:01;67.20;;;25.10;;
34471;SDS011;20710;49.976;19.836;2023-01-24T09:58:45;68.60;;;26.30;;
34471;SDS011;20710;49.976;19.836;2023-01-24T10:04:57;67.90;;;25.20;;
34471;SDS011;20710;49.976;19.836;2023-01-24T10:17:20;67.50;;;25.40;;
34471;SDS011;20710;49.976;19.836;2023-01-24T10:23:33;74.50;;;26.00;;
34471;SDS011;20710;49.976;19.836;2023-01-24T10:29:41;65.80;;;25.50;;
34471;SDS011;20710;49.976;19.836;2023-01-24T10:36:05;71.70;;;25.40;;
34471;SDS011;20710;49.976;19.836;2023-01-24T10:42:18;69.50;;;24.60;;
34471;SDS011;20710;49.976;19.836;2023-01-24T10:48:32;60.60;;;21.60;;
34471;SDS011;20710;49.976;19.836;2023-01-24T10:54:46;54.20;;;22.00;;
34471;SDS011;20710;49.976;19.836;2023-01-24T11:07:32;60.70;;;24.20;;
34471;SDS011;20710;49.976;19.836;2023-01-24T11:13:39;58.60;;;24.60;;
34471;SDS011;20710;49.976;19.836;2023-01-24T11:19:44;56.90;;;22.90;;
34471;SDS011;20710;49.976;19.836;2023-01-24T11:25:53;50.40;;;18.80;;
34471;SDS011;20710;49.976;19.836;2023-01-24T11:31:57;52.70;;;20.50;;
34471;SDS011;20710;49.976;19.836;2023-01-24T11:38:16;48.60;;;18.00;;
34471;SDS011;20710;49.976;19.836;2023-01-24T11:51:12;47.90;;;17.70;;
34471;SDS011;20710;49.976;19.836;2023-01-24T11:57:38;43.90;;;16.60;;
34471;SDS011;20710;49.976;19.836;2023-01-24T12:10:49;42.90;;;15.70;;
34471;SDS011;20710;49.976;19.836;2023-01-24T13:21:06;33.90;;;14.40;;
34471;SDS011;20710;49.976;19.836;2023-01-24T13:27:34;33.60;;;14.80;;
34471;SDS011;20710;49.976;19.836;2023-01-24T13:33:52;33.70;;;13.70;;
34471;SDS011;20710;49.976;19.836;2023-01-24T13:40:01;26.80;;;13.00;;
34471;SDS011;20710;49.976;19.836;2023-01-24T13:52:49;40.70;;;16.30;;
34471;SDS011;20710;49.976;19.836;2023-01-24T13:58:56;34.70;;;15.20;;
34471;SDS011;20710;49.976;19.836;2023-01-24T14:04:59;36.80;;;16.30;;
34471;SDS011;20710;49.976;19.836;2023-01-24T14:17:27;27.10;;;11.80;;
34471;SDS011;20710;49.976;19.836;2023-01-24T14:23:41;23.10;;;10.40;;
34471;SDS011;20710;49.976;19.836;2023-01-24T14:29:47;22.80;;;12.00;;
34471;SDS011;20710;49.976;19.836;2023-01-24T14:35:53;26.10;;;14.70;;
34471;SDS011;20710;49.976;19.836;2023-01-24T14:42:16;24.40;;;12.30;;
34471;SDS011;20710;49.976;19.836;2023-01-24T14:48:23;30.80;;;15.70;;
34471;SDS011;20710;49.976;19.836;2023-01-24T14:54:25;24.90;;;11.20;;
34471;SDS011;20710;49.976;19.836;2023-01-24T15:00:31;26.70;;;13.60;;
34471;SDS011;20710;49.976;19.836;2023-01-24T15:06:33;25.80;;;13.30;;
34471;SDS011;20710;49.976;19.836;2023-01-24T15:12:36;22.50;;;11.80;;
34471;SDS011;20710;49.976;19.836;2023-01-24T15:24:56;21.70;;;11.70;;
34471;SDS011;20710;49.976;19.836;2023-01-24T15:31:00;28.20;;;12.50;;
34471;SDS011;20710;49.976;19.836;2023-01-24T15:37:03;26.90;;;12.60;;
34471;SDS011;20710;49.976;19.836;2023-01-24T15:43:06;25.40;;;13.30;;
34471;SDS011;20710;49.976;19.836;2023-01-24T15:55:38;22.40;;;11.50;;
34471;SDS011;20710;49.976;19.836;2023-01-24T16:01:41;32.30;;;16.10;;
34471;SDS011;20710;49.976;19.836;2023-01-24T16:07:44;52.20;;;20.70;;
34471;SDS011;20710;49.976;19.836;2023-01-24T16:13:47;25.00;;;12.80;;
34471;SDS011;20710;49.976;19.836;2023-01-24T16:19:57;55.10;;;22.70;;
34471;SDS011;20710;49.976;19.836;2023-01-24T16:26:35;33.10;;;17.10;;
34471;SDS011;20710;49.976;19.836;2023-01-24T16:32:39;28.20;;;15.00;;
34471;SDS011;20710;49.976;19.836;2023-01-24T16:38:41;26.70;;;13.50;;
34471;SDS011;20710;49.976;19.836;2023-01-24T16:44:53;27.50;;;13.40;;
34471;SDS011;20710;49.976;19.836;2023-01-24T16:50:56;25.30;;;14.40;;
34471;SDS011;20710;49.976;19.836;2023-01-24T16:57:00;24.10;;;13.40;;
34471;SDS011;20710;49.976;19.836;2023-01-24T17:03:02;25.60;;;13.80;;
34471;SDS011;20710;49.976;19.836;2023-01-24T17:09:03;25.70;;;14.10;;
34471;SDS011;20710;49.976;19.836;2023-01-24T17:15:09;26.30;;;14.20;;
34471;SDS011;20710;49.976;19.836;2023-01-24T17:21:12;34.20;;;19.10;;
34471;SDS011;20710;49.976;19.836;2023-01-24T17:27:15;31.00;;;17.80;;
34471;SDS011;20710;49.976;19.836;2023-01-24T17:33:17;31.90;;;18.70;;
34471;SDS011;20710;49.976;19.836;2023-01-24T17:39:19;27.80;;;15.40;;
34471;SDS011;20710;49.976;19.836;2023-01-24T17:45:21;32.50;;;15.40;;
34471;SDS011;20710;49.976;19.836;2023-01-24T17:51:24;30.50;;;15.70;;
34471;SDS011;20710;49.976;19.836;2023-01-24T17:57:26;33.80;;;18.30;;
34471;SDS011;20710;49.976;19.836;2023-01-24T18:03:31;31.90;;;17.10;;
34471;SDS011;20710;49.976;19.836;2023-01-24T18:09:35;32.80;;;17.70;;
34471;SDS011;20710;49.976;19.836;2023-01-24T18:15:38;31.60;;;16.80;;
34471;SDS011;20710;49.976;19.836;2023-01-24T18:21:40;30.60;;;16.80;;
34471;SDS011;20710;49.976;19.836;2023-01-24T18:27:43;31.30;;;15.50;;
34471;SDS011;20710;49.976;19.836;2023-01-24T18:33:45;31.60;;;16.10;;
34471;SDS011;20710;49.976;19.836;2023-01-24T18:39:55;25.80;;;14.00;;
34471;SDS011;20710;49.976;19.836;2023-01-24T18:46:01;23.00;;;13.40;;
34471;SDS011;20710;49.976;19.836;2023-01-24T18:52:04;26.60;;;13.80;;
34471;SDS011;20710;49.976;19.836;2023-01-24T18:58:05;27.80;;;13.60;;
34471;SDS011;20710;49.976;19.836;2023-01-24T19:04:07;29.80;;;16.50;;
34471;SDS011;20710;49.976;19.836;2023-01-24T19:10:10;32.20;;;18.20;;
34471;SDS011;20710;49.976;19.836;2023-01-24T19:16:14;42.50;;;21.50;;
34471;SDS011;20710;49.976;19.836;2023-01-24T19:22:16;46.40;;;25.80;;
34471;SDS011;20710;49.976;19.836;2023-01-24T19:28:18;37.30;;;19.30;;
34471;SDS011;20710;49.976;19.836;2023-01-24T19:34:20;37.30;;;18.50;;
34471;SDS011;20710;49.976;19.836;2023-01-24T19:40:23;23.10;;;13.40;;
34471;SDS011;20710;49.976;19.836;2023-01-24T19:46:25;20.20;;;11.10;;
34471;SDS011;20710;49.976;19.836;2023-01-24T19:52:28;20.40;;;10.20;;
34471;SDS011;20710;49.976;19.836;2023-01-24T19:58:30;28.70;;;13.50;;
34471;SDS011;20710;49.976;19.836;2023-01-24T20:04:32;31.10;;;15.50;;
34471;SDS011;20710;49.976;19.836;2023-01-24T20:10:37;24.40;;;13.60;;
34471;SDS011;20710;49.976;19.836;2023-01-24T20:16:39;25.10;;;12.10;;
34471;SDS011;20710;49.976;19.836;2023-01-24T20:22:40;26.50;;;14.40;;
34471;SDS011;20710;49.976;19.836;2023-01-24T20:28:42;18.60;;;10.20;;
34471;SDS011;20710;49.976;19.836;2023-01-24T20:34:43;25.10;;;11.40;;
34471;SDS011;20710;49.976;19.836;2023-01-24T20:40:46;21.80;;;11.50;;
34471;SDS011;20710;49.976;19.836;2023-01-24T20:46:47;22.40;;;12.20;;
34471;SDS011;20710;49.976;19.836;2023-01-24T20:52:50;21.40;;;11.60;;
34471;SDS011;20710;49.976;19.836;2023-01-24T20:58:52;21.50;;;10.60;;
34471;SDS011;20710;49.976;19.836;2023-01-24T21:04:54;23.50;;;11.60;;
34471;SDS011;20710;49.976;19.836;2023-01-24T21:10:55;18.60;;;9.60;;
34471;SDS011;20710;49.976;19.836;2023-01-24T21:16:57;22.70;;;11.50;;
34471;SDS011;20710;49.976;19.836;2023-01-24T21:22:58;18.20;;;9.10;;
34471;SDS011;20710;49.976;19.836;2023-01-24T21:28:59;16.80;;;9.40;;
34471;SDS011;20710;49.976;19.836;2023-01-24T21:35:01;15.40;;;8.30;;
34471;SDS011;20710;49.976;19.836;2023-01-24T21:41:04;16.10;;;9.50;;
34471;SDS011;20710;49.976;19.836;2023-01-24T21:47:27;18.70;;;9.20;;
34471;SDS011;20710;49.976;19.836;2023-01-24T21:53:28;13.30;;;7.80;;
34471;SDS011;20710;49.976;19.836;2023-01-24T21:59:48;11.30;;;6.40;;
34471;SDS011;20710;49.976;19.836;2023-01-24T22:05:51;11.60;;;6.00;;
34471;SDS011;20710;49.976;19.836;2023-01-24T22:11:53;12.50;;;6.70;;
34471;SDS011;20710;49.976;19.836;2023-01-24T22:17:56;16.40;;;8.60;;
34471;SDS011;20710;49.976;19.836;2023-01-24T22:24:05;15.20;;;7.60;;
34471;SDS011;20710;49.976;19.836;2023-01-24T22:30:20;15.60;;;8.50;;
34471;SDS011;20710;49.976;19.836;2023-01-24T22:36:38;14.40;;;8.00;;
34471;SDS011;20710;49.976;19.836;2023-01-24T22:42:41;13.30;;;7.60;;
34471;SDS011;20710;49.976;19.836;2023-01-24T22:48:43;12.80;;;8.10;;
34471;SDS011;20710;49.976;19.836;2023-01-24T22:54:45;13.10;;;7.90;;
34471;SDS011;20710;49.976;19.836;2023-01-24T23:00:47;15.10;;;8.20;;
34471;SDS011;20710;49.976;19.836;2023-01-24T23:06:49;15.20;;;8.30;;
34471;SDS011;20710;49.976;19.836;2023-01-24T23:12:50;14.80;;;8.70;;
34471;SDS011;20710;49.976;19.836;2023-01-24T23:20:11;13.80;;;8.30;;
34471;SDS011;20710;49.976;19.836;2023-01-24T23:26:06;19.50;;;10.00;;
34471;SDS011;20710;49.976;19.836;2023-01-24T23:32:29;18.00;;;10.60;;
34471;SDS011;20710;49.976;19.836;2023-01-24T23:38:33;17.80;;;9.40;;
34471;SDS011;20710;49.976;19.836;2023-01-24T23:44:35;13.70;;;8.00;;
34471;SDS011;20710;49.976;19.836;2023-01-24T23:50:38;15.90;;;7.80;;
34471;SDS011;20710;49.976;19.836;2023-01-24T23:56:40;12.80;;;6.70;;
